Time;durP1;ratioP1;P1;durP2;ratioP2;P2;SDS_P1;SDS_P2;PMS_P1;PMS_P2;Temp;Humidity;BMP_temperature;BMP_pressure;BME280_temperature;BME280_humidity;BME280_pressure;Samples;Min_cycle;Max_cycle;Signal;HPM_P1;HPM_P2
2023/01/16 00:00:53;;;;;;;1.17;0.70;;;;;;;2.60;100.00;96973.53;15269201;19;20014;-56
2023/01/16 00:06:20;;;;;;;2.17;0.95;;;;;;;2.65;100.00;96967.78;15269875;19;20798;-58
2023/01/16 00:11:45;;;;;;;1.83;0.80;;;;;;;2.64;100.00;96957.31;15268692;19;20340;-56
2023/01/16 00:17:09;;;;;;;1.58;0.77;;;;;;;2.68;100.00;96934.75;15272705;19;20347;-56
2023/01/16 00:22:37;;;;;;;2.83;1.08;;;;;;;2.65;100.00;96954.47;15265138;19;20471;-57
2023/01/16 00:28:02;;;;;;;2.50;0.95;;;;;;;2.57;100.00;96939.28;15261547;19;20015;-59
2023/01/16 00:33:26;;;;;;;1.88;0.80;;;;;;;2.55;100.00;96940.41;15268937;19;20019;-58
2023/01/16 00:39:00;;;;;;;2.00;0.88;;;;;;;2.47;100.00;96918.06;15263269;19;20014;-59
2023/01/16 00:44:25;;;;;;;1.77;0.80;;;;;;;2.46;100.00;96920.88;15272806;19;20514;-56
2023/01/16 00:49:49;;;;;;;2.42;0.95;;;;;;;2.41;100.00;96907.19;15266744;19;20013;-59
2023/01/16 00:55:16;;;;;;;2.75;0.90;;;;;;;2.38;100.00;96903.00;15268140;19;20561;-56
2023/01/16 01:00:41;;;;;;;1.75;0.90;;;;;;;2.35;100.00;96929.88;15259329;19;20023;-55
2023/01/16 01:06:20;;;;;;;2.08;0.90;;;;;;;2.29;100.00;96920.66;15272048;19;20021;-59
2023/01/16 01:11:47;;;;;;;3.53;0.90;;;;;;;2.28;100.00;96907.53;15265534;19;20025;-56
2023/01/16 01:17:13;;;;;;;1.38;0.80;;;;;;;2.24;100.00;96904.31;15272198;19;20519;-55
2023/01/16 01:22:37;;;;;;;3.05;1.02;;;;;;;2.24;100.00;96900.84;15272185;19;20073;-59
2023/01/16 01:28:19;;;;;;;1.65;0.80;;;;;;;2.21;100.00;96899.31;15281093;19;20018;-58
2023/01/16 01:33:45;;;;;;;1.65;0.80;;;;;;;2.20;100.00;96886.16;15273673;19;20456;-59
2023/01/16 01:39:10;;;;;;;2.00;0.80;;;;;;;2.23;100.00;96875.25;15276909;19;20024;-58
2023/01/16 01:45:00;;;;;;;2.25;1.02;;;;;;;2.19;100.00;96855.25;15277867;19;20475;-55
2023/01/16 01:50:34;;;;;;;2.78;0.98;;;;;;;2.16;100.00;96848.41;15276284;19;20014;-58
2023/01/16 01:56:01;;;;;;;2.38;0.90;;;;;;;2.19;100.00;96855.25;15276416;19;20024;-58
2023/01/16 02:01:30;;;;;;;2.22;0.77;;;;;;;2.09;100.00;96850.81;15278751;19;20010;-57
2023/01/16 02:07:00;;;;;;;1.98;0.80;;;;;;;2.07;100.00;96839.50;15274610;19;20020;-58
2023/01/16 02:12:26;;;;;;;1.58;0.90;;;;;;;2.00;100.00;96838.44;15277441;19;20018;-59
2023/01/16 02:24:12;;;;;;;1.85;0.77;;;;;;;1.79;100.00;96807.63;15276203;19;20022;-56
2023/01/16 02:29:52;;;;;;;2.05;0.88;;;;;;;1.67;100.00;96793.69;15268764;19;20476;-57
2023/01/16 02:35:51;;;;;;;1.75;0.82;;;;;;;1.52;100.00;96768.63;15266763;19;20349;-55
2023/01/16 02:41:26;;;;;;;1.75;0.80;;;;;;;1.41;100.00;96766.97;15272301;19;20015;-55
2023/01/16 02:47:01;;;;;;;2.28;0.88;;;;;;;1.52;100.00;96750.88;15275966;19;20404;-54
2023/01/16 02:52:33;;;;;;;2.15;1.00;;;;;;;1.61;100.00;96741.19;15276043;19;20761;-54
2023/01/16 02:58:02;;;;;;;2.50;0.90;;;;;;;1.67;100.00;96729.16;15276270;19;20467;-57
2023/01/16 03:03:45;;;;;;;1.65;0.70;;;;;;;1.69;100.00;96711.28;15275095;19;20023;-56
2023/01/16 03:09:21;;;;;;;;;;;;;;;1.66;100.00;96701.78;15267862;19;20018;-52
2023/01/16 03:14:51;;;;;;;1.60;0.70;;;;;;;1.72;100.00;96700.34;15274991;19;19917;-54
2023/01/16 03:20:28;;;;;;;2.15;0.82;;;;;;;1.70;100.00;96691.72;15267551;19;20382;-55
2023/01/16 03:26:00;;;;;;;3.00;0.95;;;;;;;1.74;100.00;96692.25;15278481;19;20039;-56
2023/01/16 03:31:33;;;;;;;2.70;0.90;;;;;;;1.73;100.00;96682.59;15269545;19;20035;-54
2023/01/16 03:37:03;;;;;;;2.50;0.80;;;;;;;1.72;100.00;96680.94;15266706;19;20351;-55
2023/01/16 03:42:35;;;;;;;1.70;0.82;;;;;;;1.68;100.00;96675.09;15274030;19;20013;-79
2023/01/16 03:48:10;;;;;;;2.78;0.95;;;;;;;1.66;100.00;96659.28;15319892;19;20022;-79
2023/01/16 03:53:40;;;;;;;3.50;0.95;;;;;;;1.68;100.00;96640.59;15278797;19;20018;-78
2023/01/16 03:59:07;;;;;;;2.55;0.93;;;;;;;1.67;100.00;96628.28;15285351;19;20023;-78
2023/01/16 04:04:40;;;;;;;2.53;1.02;;;;;;;1.71;100.00;96629.66;15290346;19;20010;-76
2023/01/16 04:10:07;;;;;;;1.13;0.68;;;;;;;1.75;100.00;96608.97;15285716;19;20011;-78
2023/01/16 04:15:38;;;;;;;1.77;0.65;;;;;;;1.75;100.00;96595.69;15276020;19;20049;-76
2023/01/16 04:21:05;;;;;;;2.75;0.95;;;;;;;1.74;100.00;96602.00;15276250;19;20013;-77
2023/01/16 04:26:30;;;;;;;1.63;0.82;;;;;;;1.72;100.00;96583.53;15280964;19;20009;-76
2023/01/16 04:31:57;;;;;;;1.90;0.80;;;;;;;1.76;100.00;96568.97;15278194;19;20370;-78
2023/01/16 04:37:22;;;;;;;2.83;1.13;;;;;;;1.77;100.00;96565.34;15281785;19;20368;-76
2023/01/16 04:42:47;;;;;;;1.35;0.75;;;;;;;1.76;100.00;96547.75;15282516;19;20500;-78
2023/01/16 04:48:16;;;;;;;2.05;0.90;;;;;;;1.80;100.00;96542.97;15283945;19;20038;-76
2023/01/16 04:53:41;;;;;;;4.72;0.95;;;;;;;1.78;100.00;96537.81;15278553;19;20461;-77
2023/01/16 04:59:07;;;;;;;2.55;0.88;;;;;;;1.76;100.00;96531.81;15277541;19;20010;-78
2023/01/16 05:04:35;;;;;;;2.50;0.98;;;;;;;1.71;100.00;96536.75;15283643;19;20078;-77
2023/01/16 05:10:01;;;;;;;2.22;0.85;;;;;;;1.69;100.00;96520.16;15281848;19;20092;-78
2023/01/16 05:15:25;;;;;;;3.70;1.02;;;;;;;1.64;100.00;96506.50;15279935;19;20551;-77
2023/01/16 05:20:52;;;;;;;2.13;0.88;;;;;;;1.61;100.00;96504.13;15280526;19;20369;-77
2023/01/16 05:26:18;;;;;;;3.35;0.98;;;;;;;1.55;100.00;96481.69;15279566;19;20616;-78
2023/01/16 05:31:43;;;;;;;3.03;0.95;;;;;;;1.49;100.00;96477.81;15278468;19;20532;-77
2023/01/16 05:37:10;;;;;;;4.30;1.20;;;;;;;1.45;100.00;96481.78;15280573;19;20740;-77
2023/01/16 05:42:35;;;;;;;2.55;0.90;;;;;;;1.36;100.00;96466.75;15278869;19;20050;-77
2023/01/16 05:47:59;;;;;;;2.42;0.98;;;;;;;1.30;100.00;96472.69;15278337;19;20028;-77
2023/01/16 05:53:27;;;;;;;2.85;0.93;;;;;;;1.17;100.00;96467.78;15280332;19;20360;-77
2023/01/16 05:58:53;;;;;;;2.17;0.70;;;;;;;1.06;100.00;96476.75;15287750;19;20013;-78
2023/01/16 06:04:20;;;;;;;1.88;0.88;;;;;;;0.94;100.00;96475.31;15283259;19;20014;-78
2023/01/16 06:09:47;;;;;;;2.38;0.90;;;;;;;0.88;100.00;96484.69;15287626;19;20042;-76
2023/01/16 06:15:13;;;;;;;3.83;1.00;;;;;;;0.86;100.00;96482.19;15297387;19;20370;-82
2023/01/16 06:20:38;;;;;;;2.78;1.08;;;;;;;0.92;100.00;96475.47;15291180;19;20014;-78
2023/01/16 06:26:09;;;;;;;4.75;0.95;;;;;;;1.00;100.00;96472.06;15298291;19;20037;-77
2023/01/16 06:31:34;;;;;;;1.25;0.70;;;;;;;1.05;100.00;96470.63;15290777;19;20023;-77
2023/01/16 06:37:00;;;;;;;1.98;0.90;;;;;;;1.14;100.00;96450.31;15287025;19;20697;-78
2023/01/16 06:42:28;;;;;;;3.67;0.90;;;;;;;1.19;100.00;96439.25;15291798;19;20104;-77
2023/01/16 06:47:55;;;;;;;2.22;1.13;;;;;;;1.20;100.00;96419.72;15299881;19;20037;-79
2023/01/16 06:53:20;;;;;;;2.55;0.80;;;;;;;1.25;100.00;96411.28;15289388;19;20019;-78
2023/01/16 06:58:47;;;;;;;1.67;0.80;;;;;;;1.25;100.00;96405.97;15296998;19;20280;-79
2023/01/16 07:04:13;;;;;;;2.58;0.90;;;;;;;1.25;100.00;96398.03;15298161;19;20014;-79
2023/01/16 07:09:38;;;;;;;4.82;1.10;;;;;;;1.25;100.00;96384.75;15293404;19;20059;-78
2023/01/16 07:26:21;;;;;;;2.25;0.82;;;;;;;1.06;100.00;96360.09;15291713;19;20403;-78
2023/01/16 07:31:50;;;;;;;3.92;1.10;;;;;;;0.99;100.00;96348.44;14529667;19;10000745;-77
2023/01/16 07:37:14;;;;;;;2.92;0.95;;;;;;;0.92;100.00;96337.63;15298832;19;20018;-78
2023/01/16 07:42:39;;;;;;;4.45;1.90;;;;;;;0.87;100.00;96329.28;15333321;19;20014;-77
2023/01/16 07:48:08;;;;;;;4.47;1.23;;;;;;;0.85;100.00;96310.88;15329404;19;20010;-78
2023/01/16 07:53:34;;;;;;;1.90;0.90;;;;;;;0.83;100.00;96304.88;15287699;19;20361;-77
2023/01/16 07:58:59;;;;;;;2.92;1.17;;;;;;;0.82;100.00;96295.28;15285169;19;20016;-77
2023/01/16 08:04:26;;;;;;;6.45;1.08;;;;;;;0.81;100.00;96277.69;15288776;19;20078;-77
2023/01/16 08:09:51;;;;;;;1.58;0.70;;;;;;;0.84;100.00;96258.00;15284337;19;20010;-76
2023/01/16 08:15:16;;;;;;;7.63;1.20;;;;;;;0.85;100.00;96255.22;15286952;19;20366;-79
2023/01/16 08:20:44;;;;;;;3.83;0.93;;;;;;;0.90;100.00;96244.97;15290936;19;20074;-78
2023/01/16 08:26:09;;;;;;;4.72;0.90;;;;;;;1.01;100.00;96249.19;15290281;19;20116;-78
2023/01/16 08:31:33;;;;;;;2.35;0.80;;;;;;;1.15;100.00;96237.19;15279907;19;20031;-79
2023/01/16 08:37:03;;;;;;;1.60;0.90;;;;;;;1.31;100.00;96231.13;15283697;19;20029;-77
2023/01/16 08:53:46;;;;;;;2.50;0.90;;;;;;;1.77;100.00;96188.38;15286957;19;21842;-78
2023/01/16 08:59:18;;;;;;;2.13;0.90;;;;;;;1.90;100.00;96190.56;15288909;19;20035;-77
2023/01/16 09:04:44;;;;;;;2.83;1.10;;;;;;;2.05;100.00;96166.91;15284881;19;20038;-79
2023/01/16 09:10:12;;;;;;;2.67;1.05;;;;;;;2.20;100.00;96160.91;15280541;19;20478;-49
2023/01/16 09:15:38;;;;;;;5.15;1.00;;;;;;;2.34;100.00;96154.13;15261431;19;20018;-49
2023/01/16 09:21:02;;;;;;;2.45;0.70;;;;;;;2.47;100.00;96144.66;15269604;19;20023;-47
2023/01/16 09:26:31;;;;;;;4.88;1.20;;;;;;;2.51;100.00;96125.72;15270606;19;20015;-48
2023/01/16 09:31:55;;;;;;;2.40;0.93;;;;;;;2.57;100.00;96122.38;15262534;19;20010;-47
2023/01/16 09:37:21;;;;;;;6.85;0.95;;;;;;;2.67;100.00;96115.06;15259890;19;20019;-46
2023/01/16 09:48:55;;;;;;;1.63;0.70;;;;;;;2.98;100.00;96100.19;15274025;19;20045;-56
2023/01/16 10:00:08;;;;;;;3.08;0.70;;;;;;;3.39;100.00;96071.59;15286477;19;20014;-59
2023/01/16 10:05:39;;;;;;;2.97;1.00;;;;;;;3.50;100.00;96062.41;15277242;19;20011;-54
2023/01/16 10:11:11;;;;;;;11.43;1.75;;;;;;;3.68;100.00;96038.16;15279765;19;19998;-55
2023/01/16 10:16:51;;;;;;;4.10;0.90;;;;;;;3.93;100.00;96019.34;15279309;19;20384;-57
2023/01/16 10:22:27;;;;;;;3.25;0.80;;;;;;;3.98;100.00;95995.66;15275011;19;20016;-58
2023/01/16 10:28:06;;;;;;;7.95;1.30;;;;;;;3.97;100.00;95971.88;15280741;19;20019;-58
2023/01/16 10:33:42;;;;;;;1.50;0.90;;;;;;;3.93;100.00;95983.88;15278745;19;20038;-58
2023/01/16 10:39:12;;;;;;;1.02;0.60;;;;;;;3.95;100.00;95974.69;15273905;19;20422;-56
2023/01/16 10:50:19;;;;;;;17.15;2.83;;;;;;;3.82;100.00;95959.34;15278682;19;20438;-55
2023/01/16 10:55:51;;;;;;;35.83;2.65;;;;;;;3.83;100.00;95946.84;15266895;19;20427;-56
2023/01/16 11:01:27;;;;;;;97.80;6.25;;;;;;;3.94;100.00;95935.75;15276817;19;20090;-53
2023/01/16 11:07:15;;;;;;;8.82;1.23;;;;;;;4.03;100.00;95907.19;15278973;19;20877;-58
2023/01/16 11:18:32;;;;;;;7.15;0.90;;;;;;;4.17;100.00;95868.28;15271039;19;20825;-59
2023/01/16 11:24:06;;;;;;;10.25;1.10;;;;;;;4.26;100.00;95859.16;15269333;19;20010;-54
2023/01/16 11:29:37;;;;;;;14.77;2.00;;;;;;;4.26;100.00;95835.19;15277153;19;20010;-55
2023/01/16 11:35:04;;;;;;;19.17;1.83;;;;;;;4.29;100.00;95820.66;15273221;19;20038;-54
2023/01/16 11:40:37;;;;;;;39.97;2.92;;;;;;;4.35;100.00;95798.56;15275433;19;20007;-55
2023/01/16 11:46:11;;;;;;;44.50;3.65;;;;;;;4.49;100.00;95780.91;15267989;19;21422;-54
2023/01/16 11:51:40;;;;;;;1018.42;108.63;;;;;;;4.60;100.00;95759.09;15274632;19;20050;-59
2023/01/16 11:57:24;;;;;;;89.38;6.80;;;;;;;4.74;100.00;95748.56;15270648;19;20062;-59
2023/01/16 12:03:23;;;;;;;31.58;2.45;;;;;;;4.93;100.00;95723.88;15272326;19;20426;-56
2023/01/16 12:09:11;;;;;;;3.47;0.77;;;;;;;5.12;100.00;95699.41;15269759;19;20014;-53
2023/01/16 12:14:46;;;;;;;22.90;1.60;;;;;;;5.36;100.00;95698.13;15265191;19;20015;-59
2023/01/16 12:20:34;;;;;;;1.27;0.50;;;;;;;5.45;100.00;95685.44;15273114;19;20042;-53
2023/01/16 12:26:10;;;;;;;25.75;1.80;;;;;;;5.45;100.00;95667.59;15269000;19;20021;-58
2023/01/16 12:31:54;;;;;;;23.02;1.85;;;;;;;5.49;100.00;95660.00;15266267;19;20015;-59
2023/01/16 12:37:33;;;;;;;0.75;0.40;;;;;;;5.49;100.00;95628.78;15270228;19;20029;-57
2023/01/16 12:43:23;;;;;;;0.30;0.30;;;;;;;5.54;100.00;95620.16;15269219;19;20078;-57
2023/01/16 12:49:05;;;;;;;9.73;1.20;;;;;;;5.51;100.00;95607.25;15266114;19;20006;-58
2023/01/16 12:54:53;;;;;;;36.73;3.40;;;;;;;5.49;100.00;95594.06;15269829;19;20006;-60
2023/01/16 13:00:22;;;;;;;1.58;0.40;;;;;;;5.50;100.00;95579.69;15265883;19;20010;-59
2023/01/16 13:05:46;;;;;;;2.10;1.20;;;;;;;5.44;100.00;95577.84;15265709;19;20506;-57
2023/01/16 13:17:00;;;;;;;2.92;0.70;;;;;;;5.36;100.00;95557.47;15268493;19;20062;-56
2023/01/16 13:22:31;;;;;;;1.25;0.30;;;;;;;5.36;100.00;95545.97;15278192;19;20042;-57
2023/01/16 13:28:01;;;;;;;2.97;0.67;;;;;;;5.36;100.00;95538.78;15285762;19;20070;-57
2023/01/16 13:33:31;;;;;;;2.33;0.50;;;;;;;5.30;100.00;95542.25;15276516;19;20093;-56
2023/01/16 13:39:12;;;;;;;1.35;0.60;;;;;;;5.30;100.00;95531.56;15280426;19;20483;-58
2023/01/16 13:50:29;;;;;;;2.60;0.70;;;;;;;5.35;100.00;95509.63;15279871;19;20025;-56
2023/01/16 13:55:56;;;;;;;2.35;0.80;;;;;;;5.39;100.00;95505.53;15279316;19;20042;-55
2023/01/16 14:01:39;;;;;;;29.23;3.10;;;;;;;5.41;100.00;95487.47;15280019;19;20032;-59
2023/01/16 14:13:04;;;;;;;1.80;0.63;;;;;;;5.57;100.00;95474.78;15278159;19;20017;-56
2023/01/16 14:18:44;;;;;;;3.30;1.70;;;;;;;5.66;100.00;95470.88;15277441;19;20020;-59
2023/01/16 14:24:23;;;;;;;2.00;0.70;;;;;;;5.97;100.00;95464.13;15270088;19;20471;-60
2023/01/16 14:29:59;;;;;;;1.42;0.50;;;;;;;6.13;100.00;95461.06;15276176;19;20023;-56
2023/01/16 14:35:30;;;;;;;1.60;0.57;;;;;;;6.20;100.00;95454.88;15271956;19;20463;-58
2023/01/16 14:58:31;;;;;;;0.60;0.40;;;;;;;5.79;100.00;95420.16;15266100;19;20261;-53
2023/01/16 15:04:00;;;;;;;0.80;0.37;;;;;;;5.64;100.00;95411.50;15276124;19;20436;-56
2023/01/16 15:09:27;;;;;;;0.40;0.40;;;;;;;5.53;100.00;95400.41;15272150;19;20021;-55
2023/01/16 15:14:57;;;;;;;1.33;0.60;;;;;;;5.40;100.00;95403.06;15273363;19;20074;-58
2023/01/16 15:26:28;;;;;;;2.13;0.50;;;;;;;5.21;100.00;95400.16;15272593;19;20010;-61
2023/01/16 15:31:59;;;;;;;0.82;0.60;;;;;;;5.11;100.00;95386.41;15268605;19;20010;-59
2023/01/16 15:37:29;;;;;;;1.40;0.70;;;;;;;4.98;100.00;95394.38;15275435;19;20017;-58
2023/01/16 15:48:43;;;;;;;1.00;0.60;;;;;;;4.81;100.00;95376.03;15274127;19;20011;-55
2023/01/16 15:54:28;;;;;;;1.80;0.60;;;;;;;4.73;100.00;95363.72;15270787;19;20025;-57
2023/01/16 15:59:56;;;;;;;1.52;0.70;;;;;;;4.63;100.00;95355.25;15263316;19;20527;-55
2023/01/16 16:05:23;;;;;;;1.88;0.60;;;;;;;4.60;100.00;95337.84;15266931;19;20023;-58
2023/01/16 16:27:53;;;;;;;0.93;0.50;;;;;;;4.28;100.00;95307.38;15272107;19;20066;-56
2023/01/16 16:33:20;;;;;;;0.95;0.60;;;;;;;4.26;100.00;95294.25;15263869;19;20380;-59
2023/01/16 16:38:51;;;;;;;1.95;0.70;;;;;;;4.31;100.00;95289.13;15269470;19;20397;-61
2023/01/16 16:44:31;;;;;;;1.33;0.60;;;;;;;4.27;100.00;95279.91;15268831;19;20082;-56
2023/01/16 16:49:57;;;;;;;2.38;0.70;;;;;;;4.26;100.00;95262.28;15266792;19;20025;-58
2023/01/16 16:55:38;;;;;;;0.30;0.30;;;;;;;4.20;100.00;95241.75;15266293;19;20078;-58
2023/01/16 17:01:06;;;;;;;1.33;0.60;;;;;;;4.18;100.00;95243.78;15270143;19;20086;-57
2023/01/16 17:06:34;;;;;;;1.02;0.50;;;;;;;4.14;100.00;95218.59;15256938;19;20094;-57
2023/01/16 17:12:02;;;;;;;1.42;0.40;;;;;;;4.10;100.00;95194.19;15266694;19;20042;-56
2023/01/16 17:17:29;;;;;;;0.22;0.20;;;;;;;4.08;100.00;95190.91;15269027;19;20751;-56
2023/01/16 17:22:54;;;;;;;1.40;0.30;;;;;;;4.06;100.00;95181.47;15257552;19;20017;-52
2023/01/16 17:28:19;;;;;;;0.95;0.40;;;;;;;4.05;100.00;95155.88;15268807;19;20074;-55
2023/01/16 17:33:47;;;;;;;0.35;0.32;;;;;;;3.97;100.00;95147.03;15264996;19;20034;-58
2023/01/16 17:39:12;;;;;;;0.40;0.30;;;;;;;3.99;100.00;95133.53;15258120;19;20031;-57
2023/01/16 17:50:25;;;;;;;0.60;0.60;;;;;;;3.90;100.00;95110.75;15265565;19;20015;-57
2023/01/16 17:55:55;;;;;;;0.98;0.60;;;;;;;3.82;100.00;95096.59;15263705;19;20082;-57
2023/01/16 18:01:21;;;;;;;0.40;0.40;;;;;;;3.79;100.00;95096.19;15265867;19;20019;-57
2023/01/16 18:06:49;;;;;;;0.55;0.50;;;;;;;3.76;100.00;95077.94;15270997;19;20396;-56
2023/01/16 18:17:53;;;;;;;0.70;0.60;;;;;;;3.79;100.00;95074.88;15281029;19;20022;-59
2023/01/16 18:23:20;;;;;;;0.50;0.50;;;;;;;3.81;100.00;95078.19;15273351;19;20014;-58
2023/01/16 18:28:46;;;;;;;0.43;0.43;;;;;;;3.75;100.00;95063.00;15281502;19;20010;-57
2023/01/16 18:34:10;;;;;;;0.40;0.40;;;;;;;3.73;100.00;95065.88;15276551;19;20090;-58
2023/01/16 19:02:43;;;;;;;1.27;0.82;;;;;;;3.49;100.00;95014.00;15276180;19;20530;-57
2023/01/16 19:08:13;;;;;;;0.52;0.50;;;;;;;3.48;100.00;95002.53;15276799;19;20086;-56
2023/01/16 19:13:41;;;;;;;0.80;0.50;;;;;;;3.48;100.00;94999.88;15266689;19;20385;-57
2023/01/16 19:19:05;;;;;;;0.47;0.47;;;;;;;3.62;100.00;94987.41;15272220;19;20010;-53
2023/01/16 19:24:31;;;;;;;0.47;0.47;;;;;;;3.64;100.00;94987.22;15272913;19;20410;-56
2023/01/16 19:29:58;;;;;;;0.55;0.47;;;;;;;3.71;100.00;94982.72;15267087;19;20110;-54
2023/01/16 19:35:24;;;;;;;0.57;0.50;;;;;;;3.79;100.00;94987.03;15268304;19;20021;-54
2023/01/16 19:40:48;;;;;;;1.05;0.70;;;;;;;3.89;100.00;94974.13;15273031;19;20022;-57
2023/01/16 19:52:01;;;;;;;1.00;0.90;;;;;;;3.91;100.00;94964.09;15273157;19;20018;-55
2023/01/16 19:57:25;;;;;;;0.80;0.80;;;;;;;3.92;100.00;94967.56;15273442;19;20024;-58
2023/01/16 20:02:54;;;;;;;1.05;0.80;;;;;;;4.01;100.00;94967.16;14756664;19;10000427;-57
2023/01/16 20:08:19;;;;;;;0.60;0.50;;;;;;;4.07;100.00;94960.19;15263076;19;20104;-57
2023/01/16 20:13:44;;;;;;;0.60;0.60;;;;;;;4.12;100.00;94947.06;15266043;19;20035;-58
2023/01/16 20:19:11;;;;;;;1.05;0.35;;;;;;;4.24;100.00;94931.28;15265283;19;20031;-56
2023/01/16 20:24:37;;;;;;;4.03;1.88;;;;;;;4.28;100.00;94921.88;15271935;19;20024;-57
2023/01/16 20:30:02;;;;;;;3.25;2.05;;;;;;;4.23;100.00;94916.31;15272032;19;20016;-60
2023/01/16 20:35:31;;;;;;;0.50;0.50;;;;;;;4.15;100.00;94908.56;15267331;19;20018;-56
2023/01/16 20:40:55;;;;;;;0.50;0.50;;;;;;;4.19;100.00;94915.09;15267750;19;20015;-58
2023/01/16 20:46:26;;;;;;;0.95;0.32;;;;;;;4.14;100.00;94897.06;15267462;19;20421;-59
2023/01/16 20:51:54;;;;;;;0.40;0.40;;;;;;;4.04;100.00;94911.88;15263317;19;20042;-57
2023/01/16 20:57:19;;;;;;;0.90;0.50;;;;;;;3.96;100.00;94897.72;15270789;19;20643;-58
2023/01/16 21:02:44;;;;;;;1.35;0.30;;;;;;;3.89;100.00;94906.72;15272037;19;20014;-58
2023/01/16 21:08:12;;;;;;;0.77;0.50;;;;;;;3.79;100.00;94900.00;15266672;19;20368;-58
2023/01/16 21:25:10;;;;;;;0.40;0.40;;;;;;;3.67;100.00;94883.00;15260533;19;20761;-59
2023/01/16 21:30:35;;;;;;;0.70;0.50;;;;;;;3.64;100.00;94886.91;15268987;19;20022;-60
2023/01/16 21:36:06;;;;;;;0.50;0.50;;;;;;;3.64;100.00;94897.53;15264354;19;20849;-60
2023/01/16 21:46:26;;;;;;;0.43;0.43;;;;;;;3.65;100.00;94899.19;15262836;19;20010;-58
2023/01/16 21:47:20;;;;;;;0.80;0.50;;;;;;;3.78;100.00;94878.91;15276447;19;20513;-60
2023/01/16 21:52:45;;;;;;;0.40;0.40;;;;;;;3.78;100.00;94879.72;15282267;19;20025;-59
2023/01/16 21:58:13;;;;;;;0.50;0.50;;;;;;;3.77;100.00;94890.56;15276123;19;20053;-56
2023/01/16 22:03:39;;;;;;;0.40;0.40;;;;;;;3.80;100.00;94893.66;15279914;19;20029;-58
2023/01/16 22:09:04;;;;;;;0.40;0.40;;;;;;;3.82;100.00;94885.47;15277604;19;20082;-59
2023/01/16 22:20:39;;;;;;;0.40;0.40;;;;;;;3.81;100.00;94887.28;15278363;19;20014;-59
2023/01/16 22:26:03;;;;;;;1.25;0.40;;;;;;;3.80;100.00;94882.19;15270502;19;20011;-57
2023/01/16 22:31:32;;;;;;;0.60;0.40;;;;;;;3.78;100.00;94886.91;15278854;19;20015;-60
2023/01/16 22:36:57;;;;;;;0.40;0.40;;;;;;;3.75;100.00;94904.09;15281462;19;20022;-57
2023/01/16 22:42:22;;;;;;;0.60;0.50;;;;;;;3.68;100.00;94901.44;15274201;19;20527;-58
2023/01/16 22:47:56;;;;;;;0.35;0.35;;;;;;;3.65;100.00;94903.69;15275756;19;20032;-58
2023/01/16 22:53:22;;;;;;;0.73;0.25;;;;;;;3.55;100.00;94894.25;15282992;19;20010;-55
2023/01/16 22:58:48;;;;;;;0.30;0.30;;;;;;;3.51;100.00;94887.72;15272648;19;20014;-81
2023/01/16 23:04:16;;;;;;;0.22;0.22;;;;;;;3.49;100.00;94884.44;15282023;19;20011;-84
2023/01/16 23:09:41;;;;;;;1.10;0.10;;;;;;;3.45;100.00;94880.56;15283184;19;20018;-83
2023/01/16 23:15:08;;;;;;;0.20;0.15;;;;;;;3.43;100.00;94879.94;15283388;19;20235;-81
2023/01/16 23:20:41;;;;;;;0.20;0.20;;;;;;;3.39;100.00;94879.53;15282657;19;20093;-80
2023/01/16 23:26:12;;;;;;;0.15;0.15;;;;;;;3.35;100.00;94883.59;15290237;19;20116;-80
2023/01/16 23:31:38;;;;;;;0.23;0.20;;;;;;;3.33;100.00;94888.34;15290547;19;20571;-84
2023/01/16 23:37:06;;;;;;;0.10;0.10;;;;;;;3.30;100.00;94888.72;15295079;19;20031;-85
2023/01/16 23:48:10;;;;;;;0.40;0.20;;;;;;;3.21;100.00;94903.25;15284172;19;20014;-77
2023/01/16 23:53:37;;;;;;;0.20;0.20;;;;;;;3.23;100.00;94890.56;15284167;19;20031;-81
2023/01/16 23:59:02;;;;;;;0.20;0.20;;;;;;;3.15;100.00;94880.09;15286376;19;20014;-79
